Time;durP1;ratioP1;P1;durP2;ratioP2;P2;SDS_P1;SDS_P2;PMS_P1;PMS_P2;Temp;Humidity;BMP_temperature;BMP_pressure;BME280_temperature;BME280_humidity;BME280_pressure;Samples;Min_cycle;Max_cycle;Signal;HPM_P1;HPM_P2
2024/01/31 00:00:13;;;;;;;50.12;25.15;;;;;;;1.32;73.78;101576.81;1703907;84;27684;-42
2024/01/31 00:02:41;;;;;;;54.30;25.50;;;;;;;1.32;73.77;101582.14;1703906;84;25812;-41
2024/01/31 00:05:09;;;;;;;52.15;25.82;;;;;;;1.32;73.88;101581.34;1703980;84;25404;-42
2024/01/31 00:07:36;;;;;;;51.28;25.32;;;;;;;1.31;73.95;101577.83;1703925;84;26129;-41
2024/01/31 00:10:06;;;;;;;60.98;25.52;;;;;;;1.32;73.99;101577.34;1703999;82;25703;-41
2024/01/31 00:12:32;;;;;;;46.77;23.83;;;;;;;1.30;74.09;101575.69;1703904;84;27670;-42
2024/01/31 00:14:59;;;;;;;47.48;24.50;;;;;;;1.32;73.91;101576.00;1703782;84;25499;-42
2024/01/31 00:17:25;;;;;;;45.88;23.47;;;;;;;1.32;74.10;101576.00;1703739;83;25598;-42
2024/01/31 00:19:53;;;;;;;43.17;22.93;;;;;;;1.31;74.07;101571.17;1703750;84;25593;-44
2024/01/31 00:22:20;;;;;;;47.00;23.57;;;;;;;1.31;74.09;101573.83;1703867;84;25420;-43
2024/01/31 00:24:46;;;;;;;44.75;23.27;;;;;;;1.31;74.18;101571.17;1703912;84;27927;-42
2024/01/31 00:27:16;;;;;;;42.03;22.10;;;;;;;1.32;74.30;101578.14;1703808;84;25473;-43
2024/01/31 00:29:42;;;;;;;40.60;22.37;;;;;;;1.32;74.22;101571.48;1703792;84;25570;-44
2024/01/31 00:32:09;;;;;;;51.23;22.67;;;;;;;1.33;74.30;101564.29;1703627;84;25546;-44
2024/01/31 00:34:36;;;;;;;43.08;21.70;;;;;;;1.34;74.23;101565.94;1702900;82;25451;-44
2024/01/31 00:37:05;;;;;;;42.35;22.02;;;;;;;1.31;74.22;101559.17;1703184;84;27698;-44
2024/01/31 00:39:32;;;;;;;48.02;22.20;;;;;;;1.35;74.26;101558.25;1694948;83;25660;-44
2024/01/31 00:42:00;;;;;;;39.65;20.32;;;;;;;1.37;74.30;101553.52;1694287;84;25599;-46
2024/01/31 00:44:27;;;;;;;37.08;20.62;;;;;;;1.39;74.39;101562.10;1694241;84;25972;-44
2024/01/31 00:46:53;;;;;;;45.15;19.23;;;;;;;1.39;74.46;101554.11;1694217;84;25408;-42
2024/01/31 00:49:22;;;;;;;40.83;20.30;;;;;;;1.41;74.21;101549.37;1694175;84;27227;-42
2024/01/31 00:51:49;;;;;;;37.10;20.10;;;;;;;1.42;74.15;101551.02;1694184;84;25925;-44
2024/01/31 00:54:16;;;;;;;39.73;19.57;;;;;;;1.43;74.24;101551.30;1694404;84;25484;-42
2024/01/31 00:56:45;;;;;;;44.60;21.37;;;;;;;1.43;74.28;101547.30;1694496;84;25617;-43
2024/01/31 00:59:15;;;;;;;40.83;18.90;;;;;;;1.42;74.30;101549.16;1694323;84;25638;-44
2024/01/31 01:01:44;;;;;;;;;;;;;;;1.43;74.32;101544.63;1696843;84;27936;-44
2024/01/31 01:04:13;;;;;;;39.58;18.98;;;;;;;1.41;74.27;101548.84;1694196;84;25628;-44
2024/01/31 01:06:43;;;;;;;33.60;18.17;;;;;;;1.40;74.20;101547.75;1694354;84;25554;-44
2024/01/31 01:09:10;;;;;;;38.38;17.70;;;;;;;1.39;74.24;101542.11;1694299;84;26400;-44
2024/01/31 01:11:42;;;;;;;;;;;;;;;1.37;74.18;101535.66;1696829;84;25406;-45
2024/01/31 01:14:09;;;;;;;34.90;17.65;;;;;;;1.35;74.33;101543.59;1694379;84;28514;-44
2024/01/31 01:16:42;;;;;;;32.70;17.67;;;;;;;1.32;74.35;101531.49;1694255;84;25982;-44
2024/01/31 01:19:11;;;;;;;38.23;18.95;;;;;;;1.30;74.27;101536.23;1694366;84;25598;-44
2024/01/31 01:21:38;;;;;;;38.25;17.80;;;;;;;1.28;74.35;101532.97;1694292;84;25994;-44
2024/01/31 01:24:06;;;;;;;36.17;17.67;;;;;;;1.26;74.36;101531.02;1694227;84;25414;-43
2024/01/31 01:26:38;;;;;;;33.30;17.20;;;;;;;1.24;74.45;101537.92;1694518;84;28367;-43
2024/01/31 01:29:08;;;;;;;35.55;17.32;;;;;;;1.22;74.62;101529.30;1693878;84;25565;-43
2024/01/31 01:31:34;;;;;;;35.00;17.67;;;;;;;1.21;74.62;101532.17;1694351;84;25473;-43
2024/01/31 01:34:03;;;;;;;35.45;18.12;;;;;;;1.18;74.73;101526.78;1694282;84;26095;-44
2024/01/31 01:36:29;;;;;;;35.98;17.07;;;;;;;1.18;74.92;101524.11;1694450;84;25413;-44
2024/01/31 01:38:58;;;;;;;34.10;17.40;;;;;;;1.16;74.91;101524.02;1700881;83;27682;-43
2024/01/31 01:41:25;;;;;;;32.78;17.05;;;;;;;1.16;75.04;101514.69;1706967;84;25631;-45
2024/01/31 01:43:52;;;;;;;36.53;16.87;;;;;;;1.15;74.86;101526.39;1706801;84;25414;-44
2024/01/31 01:46:23;;;;;;;34.53;15.63;;;;;;;1.14;74.96;101519.42;1706964;84;25957;-44
2024/01/31 01:48:54;;;;;;;34.35;16.00;;;;;;;1.12;75.07;101520.97;1706927;84;25676;-43
2024/01/31 01:51:25;;;;;;;36.28;17.12;;;;;;;1.11;74.94;101521.48;1706994;84;27769;-43
2024/01/31 01:53:54;;;;;;;34.58;17.07;;;;;;;1.10;75.22;101518.52;1706798;83;25407;-44
2024/01/31 01:56:21;;;;;;;33.65;16.57;;;;;;;1.08;75.26;101519.25;1706926;84;25483;-42
2024/01/31 01:58:51;;;;;;;30.02;14.85;;;;;;;1.09;75.37;101516.90;1706916;84;25603;-42
2024/01/31 02:01:22;;;;;;;30.02;16.70;;;;;;;1.08;75.34;101513.11;1707068;84;25616;-43
2024/01/31 02:03:53;;;;;;;34.13;16.48;;;;;;;1.06;75.38;101515.99;1706901;84;27694;-43
2024/01/31 02:06:24;;;;;;;36.53;16.30;;;;;;;1.05;75.41;101509.54;1706841;84;25514;-46
2024/01/31 02:08:52;;;;;;;31.15;16.12;;;;;;;1.04;75.59;101511.40;1707018;84;25596;-43
2024/01/31 02:11:18;;;;;;;35.23;16.05;;;;;;;1.02;75.66;101514.80;1706840;84;25498;-42
2024/01/31 02:13:45;;;;;;;29.67;16.20;;;;;;;1.00;75.62;101503.52;1706924;84;25673;-42
2024/01/31 02:16:12;;;;;;;31.42;15.45;;;;;;;0.99;75.66;101504.56;1706841;84;27736;-43
2024/01/31 02:18:40;;;;;;;30.95;15.43;;;;;;;0.98;75.77;101501.59;1706776;84;25598;-44
2024/01/31 02:21:07;;;;;;;33.08;15.45;;;;;;;0.96;75.75;101504.98;1706919;84;25637;-43
2024/01/31 02:23:36;;;;;;;33.28;16.48;;;;;;;0.95;75.77;101505.20;1706803;84;25973;-43
2024/01/31 02:26:06;;;;;;;29.92;15.65;;;;;;;0.92;76.09;101503.28;1706948;84;25654;-44
2024/01/31 02:28:35;;;;;;;27.40;15.10;;;;;;;0.90;75.98;101505.34;1706833;84;27400;-44
2024/01/31 02:31:03;;;;;;;36.23;16.75;;;;;;;0.89;75.94;101508.22;1706929;84;25396;-43
2024/01/31 02:33:33;;;;;;;34.58;16.87;;;;;;;0.89;76.00;101506.89;1706866;84;25459;-44
2024/01/31 02:36:05;;;;;;;32.35;15.32;;;;;;;0.88;76.06;101503.91;1706845;84;25914;-44
2024/01/31 02:38:34;;;;;;;33.05;16.15;;;;;;;0.87;76.23;101509.77;1710544;83;25630;-45
2024/01/31 02:41:03;;;;;;;32.58;15.15;;;;;;;0.87;76.24;101507.09;1728989;83;27349;-42
2024/01/31 02:43:30;;;;;;;30.40;15.58;;;;;;;0.86;76.33;101505.98;1689085;85;25365;-42
2024/01/31 02:46:02;;;;;;;;;;;;;;;0.84;76.41;101506.19;1691578;85;25621;-42
2024/01/31 02:48:31;;;;;;;37.40;16.70;;;;;;;0.85;76.44;101501.67;1723862;83;26309;-45
2024/01/31 02:50:58;;;;;;;28.23;14.47;;;;;;;0.85;76.58;101508.33;1703941;84;25398;-43
2024/01/31 02:53:24;;;;;;;29.23;15.13;;;;;;;0.85;76.58;101513.16;1703795;84;27710;-42
2024/01/31 02:55:51;;;;;;;36.68;15.78;;;;;;;0.82;76.62;101506.09;1703733;84;25388;-41
2024/01/31 02:58:20;;;;;;;27.87;14.28;;;;;;;0.79;76.63;101507.87;1703782;84;25616;-43
2024/01/31 03:00:47;;;;;;;29.55;15.23;;;;;;;0.79;76.62;101506.54;1703783;84;25948;-44
2024/01/31 03:03:18;;;;;;;33.30;16.10;;;;;;;0.79;76.85;101503.88;1703923;84;25689;-44
2024/01/31 03:05:50;;;;;;;30.10;15.88;;;;;;;0.79;76.86;101501.21;1703840;84;27320;-44
2024/01/31 03:08:16;;;;;;;26.65;13.68;;;;;;;0.79;76.91;101501.21;1703747;84;25582;-41
2024/01/31 03:10:44;;;;;;;29.55;15.58;;;;;;;0.78;77.10;101492.91;1703794;84;25498;-43
2024/01/31 03:13:14;;;;;;;31.77;16.48;;;;;;;0.78;77.21;101500.90;1703715;83;26153;-42
2024/01/31 03:15:41;;;;;;;28.87;15.68;;;;;;;0.78;77.27;101498.23;1703774;84;25569;-43
2024/01/31 03:18:07;;;;;;;27.45;13.72;;;;;;;0.76;77.21;101499.78;1703784;83;27683;-43
2024/01/31 03:20:34;;;;;;;30.12;15.20;;;;;;;0.74;77.40;101495.99;1703660;84;25462;-43
2024/01/31 03:23:02;;;;;;;28.85;14.68;;;;;;;0.74;77.60;101484.01;1703762;84;25467;-45
2024/01/31 03:25:29;;;;;;;33.40;15.13;;;;;;;0.76;77.65;101489.65;1703756;84;25546;-43
2024/01/31 03:27:55;;;;;;;29.05;14.95;;;;;;;0.75;77.79;101484.84;1703812;84;25630;-44
2024/01/31 03:30:22;;;;;;;30.27;14.68;;;;;;;0.74;77.95;101481.87;1703780;83;27686;-47
2024/01/31 03:32:48;;;;;;;31.85;15.43;;;;;;;0.74;77.86;101489.34;1703785;84;25421;-45
2024/01/31 03:35:19;;;;;;;27.82;14.38;;;;;;;0.74;78.07;101491.19;1703771;84;25647;-42
2024/01/31 03:37:46;;;;;;;24.45;14.10;;;;;;;0.76;78.18;101487.79;1703782;84;25941;-43
2024/01/31 03:40:12;;;;;;;31.42;15.18;;;;;;;0.76;78.14;101492.31;1697832;83;25543;-42
2024/01/31 03:42:39;;;;;;;29.18;15.15;;;;;;;0.76;78.33;101490.98;1695989;84;27343;-43
2024/01/31 03:45:10;;;;;;;28.85;15.00;;;;;;;0.76;78.28;101496.30;1695930;84;25630;-42
2024/01/31 03:47:36;;;;;;;28.85;14.30;;;;;;;0.76;78.29;101493.64;1696039;84;25453;-44
2024/01/31 03:50:08;;;;;;;27.75;14.65;;;;;;;0.77;78.42;101497.92;1695941;84;25643;-43
2024/01/31 03:52:39;;;;;;;27.55;14.87;;;;;;;0.76;78.46;101497.11;1696061;84;25493;-42
2024/01/31 03:55:11;;;;;;;25.12;14.60;;;;;;;0.78;78.50;101502.23;1696101;84;28306;-44
2024/01/31 03:57:39;;;;;;;25.45;13.32;;;;;;;0.78;78.53;101500.90;1695938;84;25569;-43
2024/01/31 04:00:11;;;;;;;31.87;15.78;;;;;;;0.79;78.56;101498.55;1696008;84;25556;-44
2024/01/31 04:02:38;;;;;;;24.98;14.25;;;;;;;0.79;78.69;101496.69;1695885;84;25772;-45
2024/01/31 04:05:10;;;;;;;27.75;15.13;;;;;;;0.79;78.58;101492.70;1695975;84;25596;-43
2024/01/31 04:07:37;;;;;;;25.55;14.65;;;;;;;0.80;78.65;101494.83;1695675;84;27367;-46
2024/01/31 04:10:10;;;;;;;26.33;14.70;;;;;;;0.79;78.66;101487.37;1696022;84;25686;-43
2024/01/31 04:12:36;;;;;;;27.22;14.73;;;;;;;0.79;78.78;101494.55;1695998;84;25524;-42
2024/01/31 04:15:08;;;;;;;27.50;14.60;;;;;;;0.77;78.86;101489.93;1695926;84;26624;-41
2024/01/31 04:17:34;;;;;;;26.37;14.13;;;;;;;0.77;79.06;101485.44;1696048;84;25658;-44
2024/01/31 04:20:06;;;;;;;29.50;14.85;;;;;;;0.77;79.02;101480.11;1695974;84;27689;-42
2024/01/31 04:22:34;;;;;;;28.95;15.23;;;;;;;0.78;79.16;101483.59;1695949;84;25475;-44
2024/01/31 04:25:01;;;;;;;28.62;14.83;;;;;;;0.79;79.22;101491.36;1696047;84;25397;-43
2024/01/31 04:27:29;;;;;;;26.87;14.63;;;;;;;0.80;79.13;101491.67;1695908;84;26958;-42
2024/01/31 04:29:55;;;;;;;30.32;15.95;;;;;;;0.81;79.25;101493.30;1696041;84;25233;-42
2024/01/31 04:32:25;;;;;;;26.27;14.33;;;;;;;0.82;79.38;101488.28;1695924;84;27913;-43
2024/01/31 04:34:53;;;;;;;;;;;;;;;0.82;79.31;101495.43;1698418;84;25541;-45
2024/01/31 04:37:20;;;;;;;26.00;14.33;;;;;;;0.84;79.47;101502.72;1695961;84;25640;-42
2024/01/31 04:39:51;;;;;;;27.65;14.50;;;;;;;0.82;79.46;101500.27;1695060;83;25962;-44
2024/01/31 04:42:19;;;;;;;26.12;14.58;;;;;;;0.82;79.47;101501.59;1694244;84;25487;-43
2024/01/31 04:44:45;;;;;;;29.45;14.83;;;;;;;0.82;79.40;101501.59;1694165;84;27704;-44
2024/01/31 04:47:13;;;;;;;31.25;15.40;;;;;;;0.82;79.56;101490.94;1694159;84;25487;-43
2024/01/31 04:49:40;;;;;;;30.30;15.25;;;;;;;0.84;79.52;101500.05;1694272;84;25598;-48
2024/01/31 04:52:11;;;;;;;28.55;14.70;;;;;;;0.84;79.64;101499.53;1694134;84;25987;-44
2024/01/31 04:54:40;;;;;;;27.75;14.73;;;;;;;0.84;79.71;101502.20;1694243;84;25461;-47
2024/01/31 04:57:08;;;;;;;27.70;14.03;;;;;;;0.84;79.71;101498.72;1694146;84;28433;-44
2024/01/31 04:59:42;;;;;;;27.87;14.98;;;;;;;0.84;79.69;101498.72;1694176;84;25682;-42
2024/01/31 05:02:12;;;;;;;24.67;14.05;;;;;;;0.84;79.90;101500.05;1694369;84;25392;-46
2024/01/31 05:04:40;;;;;;;26.27;14.98;;;;;;;0.86;80.01;101502.79;1694215;84;25987;-43
2024/01/31 05:07:10;;;;;;;27.50;15.00;;;;;;;0.88;80.28;101502.58;1694174;84;25552;-42
2024/01/31 05:09:39;;;;;;;31.77;15.43;;;;;;;0.91;80.42;101503.48;1694245;84;27760;-45
2024/01/31 05:12:10;;;;;;;29.63;16.00;;;;;;;0.93;80.53;101502.23;1694087;84;25652;-44
2024/01/31 05:14:39;;;;;;;29.10;16.35;;;;;;;0.95;80.67;101498.02;1694260;84;32479;-43
2024/01/31 05:17:10;;;;;;;30.37;16.57;;;;;;;1.02;80.81;101508.14;1694170;84;25629;-43
2024/01/31 05:19:36;;;;;;;26.15;14.87;;;;;;;1.07;81.06;101507.47;1693302;83;25656;-44
2024/01/31 05:22:06;;;;;;;31.35;16.10;;;;;;;1.13;81.24;101513.28;1694135;84;27684;-42
2024/01/31 05:24:32;;;;;;;29.98;15.93;;;;;;;1.20;81.26;101515.91;1694196;84;25479;-44
2024/01/31 05:27:03;;;;;;;30.43;16.00;;;;;;;1.26;81.26;101515.02;1694099;84;25405;-43
2024/01/31 05:29:31;;;;;;;26.70;14.90;;;;;;;1.31;81.14;101515.19;1694016;84;25649;-45
2024/01/31 05:31:57;;;;;;;31.23;16.40;;;;;;;1.37;81.19;101514.33;1694269;84;25439;-43
2024/01/31 05:34:24;;;;;;;25.37;15.30;;;;;;;1.44;81.13;101515.08;1694100;84;27690;-42
2024/01/31 05:36:51;;;;;;;31.77;15.78;;;;;;;1.51;81.20;101516.89;1694133;84;25660;-43
2024/01/31 05:39:19;;;;;;;28.87;16.62;;;;;;;1.54;81.04;101510.59;1696050;83;25629;-42
2024/01/31 05:41:46;;;;;;;28.85;16.02;;;;;;;1.59;80.88;101511.28;1709175;84;26188;-43
2024/01/31 05:44:12;;;;;;;30.15;16.70;;;;;;;1.63;80.79;101516.47;1709136;84;25626;-43
2024/01/31 05:46:39;;;;;;;28.30;15.78;;;;;;;1.68;80.78;101513.96;1699019;84;27401;-42
2024/01/31 05:49:07;;;;;;;29.57;15.65;;;;;;;1.72;80.71;101519.17;1709040;84;25630;-42
2024/01/31 05:51:39;;;;;;;32.75;15.63;;;;;;;1.74;80.62;101519.77;1709168;84;25594;-43
2024/01/31 05:54:10;;;;;;;26.50;15.90;;;;;;;1.80;80.60;101520.72;1709294;84;25632;-43
2024/01/31 05:56:41;;;;;;;29.90;15.50;;;;;;;1.82;80.50;101510.14;1709220;84;25414;-43
2024/01/31 05:59:08;;;;;;;30.60;16.60;;;;;;;1.85;80.60;101512.34;1709214;84;28288;-44
2024/01/31 06:01:39;;;;;;;30.70;15.88;;;;;;;1.90;80.49;101510.89;1709111;84;25648;-43
2024/01/31 06:04:09;;;;;;;31.37;16.40;;;;;;;1.92;80.46;101508.81;1709169;84;25492;-42
2024/01/31 06:06:36;;;;;;;30.80;16.93;;;;;;;1.94;80.42;101516.91;1707835;84;25563;-43
2024/01/31 06:09:05;;;;;;;27.20;15.85;;;;;;;1.98;80.41;101510.08;1708509;84;25679;-42
2024/01/31 06:11:32;;;;;;;30.20;16.40;;;;;;;2.00;80.37;101515.19;1708567;84;27327;-45
2024/01/31 06:14:02;;;;;;;27.30;16.82;;;;;;;2.01;80.43;101510.13;1708710;84;25784;-44
2024/01/31 06:16:29;;;;;;;29.67;17.10;;;;;;;2.03;80.61;101514.23;1708814;83;25650;-43
2024/01/31 06:18:57;;;;;;;31.50;17.00;;;;;;;2.07;80.66;101507.92;1708745;83;25952;-44
2024/01/31 06:21:23;;;;;;;30.88;17.02;;;;;;;2.06;80.66;101502.31;1708838;84;25711;-46
2024/01/31 06:23:50;;;;;;;33.40;16.73;;;;;;;2.11;80.70;101510.47;1709139;84;27707;-42
2024/01/31 06:26:16;;;;;;;32.33;16.93;;;;;;;2.13;80.71;101503.54;1709029;84;25629;-42
2024/01/31 06:28:43;;;;;;;34.08;16.82;;;;;;;2.18;80.89;101498.34;1709106;84;25695;-47
2024/01/31 06:33:46;;;;;;;31.00;16.90;;;;;;;2.26;80.97;101509.26;1635449;87;25765;-44
2024/01/31 06:36:13;;;;;;;32.20;16.93;;;;;;;2.29;80.92;101512.30;1635447;87;27293;-45
2024/01/31 06:38:41;;;;;;;31.17;16.05;;;;;;;2.32;81.01;101515.86;1635289;87;25496;-42
2024/01/31 06:41:07;;;;;;;33.53;17.82;;;;;;;2.35;81.07;101522.09;1616029;87;25650;-42
2024/01/31 06:43:34;;;;;;;33.10;17.40;;;;;;;2.37;81.01;101520.01;1610144;89;25649;-44
2024/01/31 06:46:04;;;;;;;30.43;16.23;;;;;;;2.41;81.05;101519.04;1610156;89;25600;-43
2024/01/31 06:48:31;;;;;;;29.40;16.37;;;;;;;2.44;81.15;101517.27;1610173;89;28333;-47
2024/01/31 06:50:57;;;;;;;31.52;17.32;;;;;;;2.48;81.12;101518.43;1610148;89;25544;-43
2024/01/31 06:53:27;;;;;;;35.73;18.40;;;;;;;2.52;81.16;101522.30;1610224;89;25742;-42
2024/01/31 06:55:54;;;;;;;34.55;18.73;;;;;;;2.54;81.18;101523.41;1610161;89;26592;-45
2024/01/31 06:58:21;;;;;;;30.68;17.60;;;;;;;2.59;81.15;101525.70;1610159;89;25499;-42
2024/01/31 07:00:55;;;;;;;33.63;18.30;;;;;;;2.63;81.29;101526.59;1610112;89;28316;-46
2024/01/31 07:03:20;;;;;;;36.00;18.25;;;;;;;2.64;81.14;101527.70;1610012;89;25674;-47
2024/01/31 07:05:49;;;;;;;33.70;17.00;;;;;;;2.70;81.10;101525.44;1610168;89;25469;-45
2024/01/31 07:08:15;;;;;;;35.38;18.17;;;;;;;2.72;81.05;101526.03;1610144;89;25641;-43
2024/01/31 07:10:47;;;;;;;35.00;18.82;;;;;;;2.77;81.05;101529.36;1658539;84;25510;-44
2024/01/31 07:13:13;;;;;;;33.15;16.95;;;;;;;2.80;81.03;101531.06;1696068;84;28432;-42
2024/01/31 07:15:42;;;;;;;32.40;18.52;;;;;;;2.84;81.11;101523.94;1696045;84;25412;-46
2024/01/31 07:18:14;;;;;;;39.53;18.20;;;;;;;2.86;81.07;101523.17;1696226;84;25482;-42
2024/01/31 07:20:40;;;;;;;34.40;18.82;;;;;;;2.89;81.16;101520.05;1696125;84;26756;-43
2024/01/31 07:23:10;;;;;;;34.92;18.65;;;;;;;2.91;81.13;101516.13;1696213;84;25410;-44
2024/01/31 07:25:41;;;;;;;35.88;18.07;;;;;;;2.97;81.27;101525.89;1695933;83;28198;-43
2024/01/31 07:28:07;;;;;;;;;;;;;;;3.03;81.41;101521.52;1698469;84;25403;-42
2024/01/31 07:30:34;;;;;;;39.18;18.37;;;;;;;3.08;81.45;101521.64;1671140;85;25905;-43
2024/01/31 07:33:00;;;;;;;42.27;19.20;;;;;;;3.11;81.43;101522.50;1696042;84;25983;-43
2024/01/31 07:35:27;;;;;;;39.48;17.95;;;;;;;3.14;81.39;101520.70;1696095;84;25613;-44
2024/01/31 07:37:55;;;;;;;56.63;33.63;;;;;;;3.18;81.46;101520.56;1696046;84;27712;-43
2024/01/31 07:40:24;;;;;;;42.78;23.05;;;;;;;3.25;81.65;101522.30;1695243;84;26044;-45
2024/01/31 07:42:50;;;;;;;44.90;21.05;;;;;;;3.31;81.69;101524.87;1694313;84;25634;-43
2024/01/31 07:45:17;;;;;;;37.58;19.98;;;;;;;3.38;81.63;101527.98;1694257;84;25643;-44
2024/01/31 07:47:43;;;;;;;39.05;20.12;;;;;;;3.44;81.49;101525.70;1694287;84;25578;-43
2024/01/31 07:50:15;;;;;;;34.30;19.25;;;;;;;3.49;81.36;101523.98;1694228;84;27947;-42
2024/01/31 07:52:43;;;;;;;38.05;20.10;;;;;;;3.52;81.30;101527.54;1694189;84;25599;-44
2024/01/31 07:55:10;;;;;;;39.30;19.48;;;;;;;3.54;81.17;101535.30;1694237;84;25578;-44
2024/01/31 07:57:38;;;;;;;39.27;20.30;;;;;;;3.58;81.20;101531.14;1694212;84;25970;-44
2024/01/31 08:00:12;;;;;;;39.33;20.68;;;;;;;3.61;81.11;101531.19;1694170;84;25602;-43
2024/01/31 08:02:38;;;;;;;34.48;18.95;;;;;;;3.64;81.20;101528.85;1694250;84;28043;-44
2024/01/31 08:05:10;;;;;;;40.75;20.08;;;;;;;3.69;81.29;101531.64;1694161;84;25558;-43
2024/01/31 08:07:37;;;;;;;37.88;20.50;;;;;;;3.74;81.42;101533.63;1694363;84;25463;-43
2024/01/31 08:10:12;;;;;;;36.33;19.98;;;;;;;3.79;81.52;101527.59;1694190;84;26589;-44
2024/01/31 08:12:45;;;;;;;40.98;21.12;;;;;;;3.86;81.57;101529.09;1694284;84;25415;-44
2024/01/31 08:15:12;;;;;;;38.25;20.30;;;;;;;3.93;81.58;101539.67;1694244;84;28375;-44
2024/01/31 08:17:39;;;;;;;40.88;21.65;;;;;;;3.98;81.58;101537.64;1694161;84;25371;-44
2024/01/31 08:20:11;;;;;;;36.35;20.10;;;;;;;4.03;81.63;101541.77;1694267;84;25569;-45
2024/01/31 08:22:40;;;;;;;42.80;22.10;;;;;;;4.09;81.67;101540.31;1694215;84;25611;-43
2024/01/31 08:25:13;;;;;;;38.35;21.25;;;;;;;4.17;81.54;101543.67;1694202;84;25447;-43
2024/01/31 08:27:39;;;;;;;55.28;26.52;;;;;;;4.21;81.56;101544.31;1694237;84;27414;-45
2024/01/31 08:30:16;;;;;;;45.40;22.70;;;;;;;4.28;81.71;101544.19;1694225;84;25628;-43
2024/01/31 08:32:42;;;;;;;40.90;20.65;;;;;;;4.36;81.77;101540.31;1694275;84;25568;-46
2024/01/31 08:35:12;;;;;;;40.05;21.45;;;;;;;4.44;81.75;101538.61;1694232;84;25691;-44
2024/01/31 08:37:39;;;;;;;41.25;22.05;;;;;;;4.53;81.83;101545.24;1694308;84;25621;-42
2024/01/31 08:40:10;;;;;;;42.48;22.13;;;;;;;4.61;81.79;101544.84;1695099;84;27530;-42
2024/01/31 08:42:40;;;;;;;37.33;20.92;;;;;;;4.69;81.73;101545.00;1703826;84;25696;-45
2024/01/31 08:45:13;;;;;;;36.83;20.75;;;;;;;4.75;81.50;101544.06;1703771;84;25632;-42
2024/01/31 08:47:42;;;;;;;40.00;21.87;;;;;;;4.79;81.35;101549.22;1703826;84;25628;-43
2024/01/31 08:50:11;;;;;;;42.60;20.82;;;;;;;4.80;81.15;101540.14;1703844;82;25629;-42
2024/01/31 08:52:37;;;;;;;43.08;22.13;;;;;;;4.82;81.11;101538.03;1703857;84;27361;-42
2024/01/31 08:55:13;;;;;;;50.70;21.48;;;;;;;4.86;81.15;101541.04;1703676;84;25557;-43
2024/01/31 08:57:39;;;;;;;46.98;23.10;;;;;;;4.86;81.08;101535.14;1703830;84;25660;-44
2024/01/31 09:00:17;;;;;;;40.98;23.52;;;;;;;4.91;81.04;101539.79;1703729;84;26622;-43
2024/01/31 09:02:43;;;;;;;40.83;22.58;;;;;;;4.92;81.12;101541.43;1703842;84;25576;-42
2024/01/31 09:05:11;;;;;;;39.60;21.68;;;;;;;4.97;81.04;101542.03;1703728;84;27700;-43
2024/01/31 09:07:39;;;;;;;41.90;23.12;;;;;;;4.97;81.03;101540.18;1703605;84;25829;-44
2024/01/31 09:10:08;;;;;;;43.35;22.62;;;;;;;5.02;81.05;101540.78;1703796;82;25719;-45
2024/01/31 09:12:35;;;;;;;47.60;20.82;;;;;;;5.06;81.04;101549.98;1703816;83;25965;-44
2024/01/31 09:15:01;;;;;;;38.55;19.37;;;;;;;5.06;80.95;101540.59;1703878;82;25585;-42
2024/01/31 09:17:28;;;;;;;38.67;20.77;;;;;;;5.08;81.05;101545.19;1703858;82;27328;-43
2024/01/31 09:19:54;;;;;;;39.05;20.85;;;;;;;5.14;81.05;101534.84;1703823;84;25564;-41
2024/01/31 09:22:21;;;;;;;40.78;20.65;;;;;;;5.20;81.09;101535.73;1703874;84;25584;-43
2024/01/31 09:24:48;;;;;;;38.83;20.35;;;;;;;5.27;81.23;101532.91;1703812;83;25625;-42
2024/01/31 09:27:16;;;;;;;36.68;19.67;;;;;;;5.39;81.45;101536.31;1703881;84;25804;-42
2024/01/31 09:29:42;;;;;;;38.33;20.08;;;;;;;5.51;81.45;101535.70;1703937;82;27333;-44
2024/01/31 09:32:09;;;;;;;34.35;19.48;;;;;;;5.63;81.66;101543.67;1723423;78;25382;-42
2024/01/31 09:34:36;;;;;;;38.23;20.05;;;;;;;5.75;81.38;101551.09;1798885;79;25394;-43
2024/01/31 09:37:02;;;;;;;39.85;20.85;;;;;;;5.86;81.27;101542.69;1798918;79;25690;-42
2024/01/31 09:39:32;;;;;;;33.45;18.95;;;;;;;5.95;80.76;101539.84;1798908;79;25459;-42
2024/01/31 09:42:00;;;;;;;37.08;20.23;;;;;;;6.02;80.50;101545.61;1798885;79;27360;-43
2024/01/31 09:44:30;;;;;;;35.48;20.50;;;;;;;6.11;80.52;101550.83;1798852;78;25549;-43
2024/01/31 09:47:01;;;;;;;130.07;80.95;;;;;;;6.14;80.09;101547.11;1798832;79;25226;-45
2024/01/31 09:49:31;;;;;;;104.53;68.35;;;;;;;6.20;80.12;101548.02;1798981;79;25923;-46
2024/01/31 09:52:01;;;;;;;42.90;24.35;;;;;;;6.28;79.93;101530.63;1798911;79;25378;-47
2024/01/31 09:54:32;;;;;;;33.85;20.08;;;;;;;6.37;80.18;101535.88;1798829;79;27687;-46
2024/01/31 09:57:04;;;;;;;34.95;19.32;;;;;;;6.48;80.25;101529.53;1798885;79;25595;-46
2024/01/31 09:59:33;;;;;;;33.10;19.85;;;;;;;6.61;80.00;101527.55;1798921;79;25559;-44
2024/01/31 10:02:05;;;;;;;38.90;20.88;;;;;;;6.66;79.64;101515.51;1798820;79;26580;-43
2024/01/31 10:04:31;;;;;;;34.35;18.67;;;;;;;6.72;79.10;101513.13;1798928;79;25564;-45
2024/01/31 10:06:59;;;;;;;34.55;19.42;;;;;;;6.77;78.90;101506.46;1798849;79;27826;-41
2024/01/31 10:09:26;;;;;;;33.58;17.80;;;;;;;6.83;78.97;101517.56;1798821;79;25368;-43
2024/01/31 10:11:52;;;;;;;36.77;19.12;;;;;;;6.86;78.47;101507.64;1798814;79;25612;-42
2024/01/31 10:14:21;;;;;;;34.70;19.25;;;;;;;6.87;77.81;101519.20;1798882;79;25379;-44
2024/01/31 10:16:47;;;;;;;33.30;17.65;;;;;;;6.87;77.59;101510.59;1798826;79;25578;-44
2024/01/31 10:19:14;;;;;;;36.75;18.85;;;;;;;6.89;77.78;101504.42;1798821;79;27304;-42
2024/01/31 10:21:40;;;;;;;33.90;18.02;;;;;;;6.91;77.57;101506.35;1771852;79;25616;-44
2024/01/31 10:24:22;;;;;;;32.78;18.02;;;;;;;6.95;78.01;101501.78;1798781;79;25542;-43
2024/01/31 10:26:49;;;;;;;32.03;17.90;;;;;;;6.99;77.56;101508.30;1798697;79;26558;-43
2024/01/31 10:29:15;;;;;;;31.05;17.25;;;;;;;7.05;77.82;101494.64;1798869;79;25561;-42
2024/01/31 10:31:46;;;;;;;29.02;16.85;;;;;;;7.19;77.41;101503.63;1798783;79;27311;-43
2024/01/31 10:34:17;;;;;;;32.67;17.40;;;;;;;7.33;77.49;101499.97;1796089;79;25567;-44
2024/01/31 10:36:47;;;;;;;38.50;18.05;;;;;;;7.60;78.16;101502.59;1767097;79;25464;-44
2024/01/31 10:39:18;;;;;;;35.38;20.20;;;;;;;7.93;77.23;101501.97;1796014;79;25765;-44
2024/01/31 10:41:50;;;;;;;36.28;20.20;;;;;;;8.10;77.48;101499.09;1796141;79;25217;-43
2024/01/31 10:44:21;;;;;;;40.58;22.70;;;;;;;8.28;76.23;101496.48;1796097;79;27359;-44
2024/01/31 10:46:49;;;;;;;29.98;18.20;;;;;;;8.37;76.15;101493.00;1795942;79;25596;-42
2024/01/31 10:49:17;;;;;;;31.95;17.95;;;;;;;8.37;74.54;101486.80;1796080;79;25509;-42
2024/01/31 10:51:53;;;;;;;29.32;17.27;;;;;;;8.48;74.46;101482.27;1795948;79;26575;-43
2024/01/31 10:54:31;;;;;;;28.90;17.42;;;;;;;8.47;72.98;101490.91;1796102;79;25393;-44
2024/01/31 10:57:07;;;;;;;31.30;18.90;;;;;;;8.43;73.71;101476.87;1796135;79;27286;-44
2024/01/31 10:59:37;;;;;;;29.63;17.77;;;;;;;8.50;74.32;101478.25;1795947;79;25971;-42
2024/01/31 11:02:17;;;;;;;30.52;17.92;;;;;;;8.53;73.59;101489.86;1796060;79;25525;-43
2024/01/31 11:04:46;;;;;;;28.02;17.92;;;;;;;8.55;73.66;101481.50;1795812;79;26778;-43
2024/01/31 11:07:21;;;;;;;31.25;18.00;;;;;;;8.56;73.75;101486.63;1794534;79;25951;-44
2024/01/31 11:09:50;;;;;;;33.20;18.60;;;;;;;8.58;73.71;101479.08;1795102;79;27311;-43
2024/01/31 11:12:18;;;;;;;30.92;18.50;;;;;;;8.58;72.94;101483.64;1766990;79;25566;-43
2024/01/31 11:14:50;;;;;;;32.28;18.40;;;;;;;8.45;72.23;101480.13;1796000;79;25379;-45
2024/01/31 11:17:22;;;;;;;31.30;17.95;;;;;;;8.30;71.79;101483.00;1796015;79;25979;-42
2024/01/31 11:19:58;;;;;;;31.87;18.35;;;;;;;8.16;72.11;101484.03;1796054;79;25596;-44
2024/01/31 11:22:29;;;;;;;31.42;18.82;;;;;;;8.05;72.94;101478.31;1793259;79;27704;-43
2024/01/31 11:24:59;;;;;;;34.25;19.45;;;;;;;8.00;73.11;101476.95;1795981;79;25611;-43
2024/01/31 11:27:29;;;;;;;29.48;18.07;;;;;;;7.93;73.15;101475.83;1796094;79;25463;-43